createdAt,value
2019-06-10T00:00:43.541Z,20.86
2019-06-10T00:03:15.594Z,20.79
2019-06-10T00:05:48.780Z,20.77
2019-06-10T00:08:21.053Z,20.73
2019-06-10T00:11:08.004Z,20.71
2019-06-10T00:13:41.488Z,20.60
2019-06-10T00:16:14.607Z,20.65
2019-06-10T00:18:46.691Z,20.54
2019-06-10T00:21:18.768Z,20.50
2019-06-10T00:23:51.833Z,20.46
2019-06-10T00:26:24.109Z,20.40
2019-06-10T00:28:56.307Z,20.41
2019-06-10T00:31:28.517Z,20.36
2019-06-10T00:34:02.972Z,20.26
2019-06-10T00:36:34.406Z,20.21
2019-06-10T00:39:08.944Z,20.15
2019-06-10T00:41:42.844Z,20.11
2019-06-10T00:46:51.429Z,20.15
2019-06-10T00:49:22.710Z,20.05
2019-06-10T00:51:54.800Z,20.00
2019-06-10T00:54:26.885Z,19.96
2019-06-10T00:57:01.176Z,19.89
2019-06-10T00:59:32.846Z,19.87
2019-06-10T01:02:06.376Z,19.86
2019-06-10T01:04:40.727Z,19.82
2019-06-10T01:07:14.778Z,19.75
2019-06-10T01:09:46.559Z,19.69
2019-06-10T01:12:20.976Z,19.62
2019-06-10T01:14:52.609Z,19.61
2019-06-10T01:17:24.748Z,19.60
2019-06-10T01:19:58.020Z,19.54
2019-06-10T01:22:31.591Z,19.47
2019-06-10T01:25:05.202Z,19.44
2019-06-10T01:27:37.561Z,19.41
2019-06-10T01:30:17.987Z,19.39
2019-06-10T01:32:43.500Z,19.39
2019-06-10T01:35:16.164Z,19.46
2019-06-10T01:37:51.882Z,19.44
2019-06-10T01:40:23.444Z,19.35
2019-06-10T01:42:55.602Z,19.31
2019-06-10T01:45:27.665Z,19.26
2019-06-10T01:48:01.425Z,19.24
2019-06-10T01:50:33.770Z,19.23
2019-06-10T01:53:07.276Z,19.26
2019-06-10T01:55:41.498Z,19.26
2019-06-10T01:58:16.346Z,19.29
2019-06-10T02:00:50.769Z,19.26
2019-06-10T02:03:24.011Z,19.24
2019-06-10T02:05:56.260Z,19.22
2019-06-10T02:08:31.375Z,19.23
2019-06-10T02:11:02.482Z,19.20
2019-06-10T02:13:34.489Z,19.23
2019-06-10T02:16:06.706Z,19.27
2019-06-10T02:18:42.245Z,19.28
2019-06-10T02:21:15.051Z,19.26
2019-06-10T02:23:47.603Z,19.24
2019-06-10T02:26:23.194Z,19.27
2019-06-10T02:28:53.816Z,19.32
2019-06-10T02:31:30.429Z,19.35
2019-06-10T02:34:02.604Z,19.37
2019-06-10T02:36:36.738Z,19.43
2019-06-10T02:39:13.356Z,19.47
2019-06-10T02:41:45.011Z,19.52
2019-06-10T02:44:21.794Z,19.60
2019-06-10T02:46:54.204Z,19.70
2019-06-10T02:49:47.030Z,19.77
2019-06-10T02:52:03.457Z,19.86
2019-06-10T02:54:35.992Z,19.90
2019-06-10T02:57:08.096Z,19.92
2019-06-10T02:59:43.421Z,19.96
2019-06-10T03:02:15.669Z,20.06
2019-06-10T03:04:47.854Z,20.16
2019-06-10T03:07:21.153Z,20.28
2019-06-10T03:09:54.011Z,20.39
2019-06-10T03:12:28.198Z,20.46
2019-06-10T03:15:02.126Z,20.56
2019-06-10T03:17:35.267Z,20.67
2019-06-10T03:20:07.485Z,20.75
2019-06-10T03:22:42.134Z,20.84
2019-06-10T03:25:13.315Z,20.92
2019-06-10T03:27:45.369Z,21.01
2019-06-10T03:30:28.603Z,21.10
2019-06-10T03:32:51.151Z,21.22
2019-06-10T03:35:26.560Z,21.32
2019-06-10T03:37:58.088Z,21.38
2019-06-10T03:40:30.038Z,21.46
2019-06-10T03:43:02.593Z,21.55
2019-06-10T03:45:34.814Z,21.59
2019-06-10T03:48:06.892Z,21.73
2019-06-10T03:50:38.965Z,21.81
2019-06-10T03:53:12.890Z,21.92
2019-06-10T03:55:44.760Z,22.03
2019-06-10T03:58:17.835Z,22.08
2019-06-10T04:00:52.083Z,22.13
2019-06-10T04:03:24.819Z,22.21
2019-06-10T04:05:57.700Z,22.26
2019-06-10T04:08:29.881Z,22.37
2019-06-10T04:11:02.850Z,22.44
2019-06-10T04:13:36.303Z,22.55
2019-06-10T04:16:08.275Z,22.70
2019-06-10T04:18:42.799Z,22.83
2019-06-10T04:21:14.076Z,22.93
2019-06-10T04:23:47.266Z,23.04
2019-06-10T04:26:19.759Z,23.22
2019-06-10T04:28:53.032Z,23.31
2019-06-10T04:31:26.538Z,23.45
2019-06-10T04:33:59.053Z,23.56
2019-06-10T04:36:33.341Z,23.70
2019-06-10T04:39:06.777Z,23.87
2019-06-10T04:41:38.761Z,24.03
2019-06-10T04:44:12.970Z,24.06
2019-06-10T04:46:44.699Z,24.17
2019-06-10T04:49:16.659Z,24.30
2019-06-10T04:51:48.693Z,24.36
2019-06-10T04:54:23.414Z,24.55
2019-06-10T04:56:54.779Z,24.65
2019-06-10T04:59:30.094Z,24.73
2019-06-10T05:02:02.747Z,24.84
2019-06-10T05:04:35.234Z,24.98
2019-06-10T05:07:07.221Z,25.08
2019-06-10T05:09:42.099Z,25.16
2019-06-10T05:12:13.356Z,25.17
2019-06-10T05:14:45.413Z,25.18
2019-06-10T05:17:24.284Z,25.34
2019-06-10T05:20:03.230Z,25.36
2019-06-10T05:26:03.130Z,25.40
2019-06-10T05:28:36.241Z,25.33
2019-06-10T05:31:08.248Z,25.35
2019-06-10T05:33:42.498Z,25.51
2019-06-10T05:36:14.120Z,25.65
2019-06-10T05:38:46.206Z,25.76
2019-06-10T05:41:18.283Z,25.70
2019-06-10T05:43:52.344Z,25.79
2019-06-10T05:46:25.496Z,25.90
2019-06-10T05:48:57.853Z,26.00
2019-06-10T05:51:31.346Z,26.06
2019-06-10T05:54:03.513Z,26.06
2019-06-10T05:56:36.473Z,26.14
2019-06-10T05:59:08.470Z,26.30
2019-06-10T06:01:43.174Z,26.37
2019-06-10T06:04:14.493Z,26.39
2019-06-10T06:06:46.694Z,26.48
2019-06-10T06:09:18.975Z,26.61
2019-06-10T06:11:52.359Z,26.63
2019-06-10T06:14:25.467Z,26.70
2019-06-10T06:16:57.520Z,26.82
2019-06-10T06:19:30.810Z,26.94
2019-06-10T06:22:03.646Z,26.94
2019-06-10T06:24:35.775Z,26.98
2019-06-10T06:27:07.800Z,27.01
2019-06-10T06:29:39.812Z,27.16
2019-06-10T06:32:13.214Z,27.24
2019-06-10T06:34:45.381Z,27.25
2019-06-10T06:37:17.619Z,27.32
2019-06-10T06:39:52.180Z,27.39
2019-06-10T06:42:23.980Z,27.46
2019-06-10T06:44:56.068Z,27.58
2019-06-10T06:47:29.838Z,27.68
2019-06-10T06:50:02.744Z,27.79
2019-06-10T06:53:04.846Z,27.83
2019-06-10T06:55:09.938Z,27.88
2019-06-10T06:57:43.362Z,27.91
2019-06-10T07:00:38.715Z,27.91
2019-06-10T07:02:49.819Z,28.05
2019-06-10T07:05:22.954Z,28.11
2019-06-10T07:07:55.171Z,28.13
2019-06-10T07:10:27.357Z,28.23
2019-06-10T07:13:02.722Z,28.36
2019-06-10T07:15:47.465Z,28.44
2019-06-10T07:18:19.897Z,28.51
2019-06-10T07:20:54.049Z,28.56
2019-06-10T07:23:26.490Z,28.58
2019-06-10T07:25:58.505Z,28.72
2019-06-10T07:28:33.977Z,28.78
2019-06-10T07:31:19.510Z,28.87
2019-06-10T07:33:40.901Z,28.92
2019-06-10T07:36:13.206Z,28.92
2019-06-10T07:38:48.699Z,29.11
2019-06-10T07:41:19.579Z,29.11
2019-06-10T07:43:52.820Z,29.17
2019-06-10T07:46:25.207Z,29.13
2019-06-10T07:48:57.189Z,29.15
2019-06-10T07:51:29.158Z,29.15
2019-06-10T07:54:03.299Z,29.28
2019-06-10T07:56:40.353Z,29.34
2019-06-10T07:59:12.851Z,29.43
2019-06-10T08:01:50.916Z,29.61
2019-06-10T08:04:17.940Z,29.61
2019-06-10T08:06:52.782Z,29.67
2019-06-10T08:09:23.696Z,29.76
2019-06-10T08:11:55.686Z,29.83
2019-06-10T08:14:27.635Z,29.91
2019-06-10T08:16:59.617Z,29.96
2019-06-10T08:19:38.712Z,30.04
2019-06-10T08:22:09.370Z,30.08
2019-06-10T08:24:45.389Z,30.14
2019-06-10T08:27:22.787Z,30.19
2019-06-10T08:30:18.619Z,30.27
2019-06-10T08:32:49.008Z,30.31
2019-06-10T08:35:35.841Z,30.42
2019-06-10T08:37:54.408Z,30.49
2019-06-10T08:40:26.471Z,30.58
2019-06-10T08:42:58.683Z,30.63
2019-06-10T08:45:33.147Z,30.72
2019-06-10T08:48:04.722Z,30.80
2019-06-10T08:50:37.609Z,30.84
2019-06-10T08:53:18.415Z,30.90
2019-06-10T08:56:17.503Z,30.98
2019-06-10T08:58:51.610Z,31.02
2019-06-10T09:01:23.362Z,31.12
2019-06-10T09:03:55.373Z,31.17
2019-06-10T09:06:27.422Z,31.17
2019-06-10T09:08:59.614Z,31.22
2019-06-10T09:11:34.536Z,31.27
2019-06-10T09:14:06.662Z,31.30
2019-06-10T09:16:40.012Z,31.33
2019-06-10T09:19:13.275Z,31.34
2019-06-10T09:21:51.305Z,31.38
2019-06-10T09:24:22.178Z,31.46
2019-06-10T09:26:55.191Z,31.51
2019-06-10T09:29:27.456Z,31.57
2019-06-10T09:32:04.185Z,31.59
2019-06-10T09:34:36.238Z,31.65
2019-06-10T09:37:12.482Z,31.70
2019-06-10T09:39:51.849Z,31.70
2019-06-10T09:42:19.878Z,31.75
2019-06-10T09:45:09.822Z,31.78
2019-06-10T09:47:50.358Z,31.82
2019-06-10T09:51:07.314Z,31.86
2019-06-10T09:53:42.737Z,31.89
2019-06-10T10:00:07.872Z,31.97
2019-06-10T10:02:52.609Z,31.99
2019-06-10T10:05:26.573Z,32.04
2019-06-10T10:07:59.605Z,32.09
2019-06-10T10:10:37.059Z,32.15
2019-06-10T10:13:13.747Z,32.18
2019-06-10T10:15:45.734Z,32.23
2019-06-10T10:18:18.631Z,32.28
2019-06-10T10:20:52.728Z,32.25
2019-06-10T10:23:24.611Z,32.30
2019-06-10T10:25:57.211Z,32.33
2019-06-10T10:28:33.200Z,32.35
2019-06-10T10:31:04.775Z,32.43
2019-06-10T10:33:37.033Z,32.45
2019-06-10T10:36:09.149Z,32.50
2019-06-10T10:38:42.436Z,32.52
2019-06-10T10:41:14.846Z,32.56
2019-06-10T10:43:48.891Z,32.63
2019-06-10T10:46:23.104Z,32.66
2019-06-10T10:48:56.479Z,32.64
2019-06-10T10:51:28.002Z,32.71
2019-06-10T10:54:21.033Z,32.75
2019-06-10T10:56:34.105Z,32.83
2019-06-10T10:59:06.322Z,32.82
2019-06-10T11:01:38.321Z,32.80
2019-06-10T11:04:13.034Z,32.83
2019-06-10T11:06:44.905Z,32.86
2019-06-10T11:09:17.813Z,32.88
2019-06-10T11:11:52.226Z,32.93
2019-06-10T11:14:23.563Z,32.97
2019-06-10T11:16:58.463Z,32.98
2019-06-10T11:19:29.464Z,32.99
2019-06-10T11:22:03.088Z,33.06
2019-06-10T11:24:40.855Z,33.09
2019-06-10T11:27:12.607Z,33.15
2019-06-10T11:29:43.955Z,33.16
2019-06-10T11:32:16.038Z,33.19
2019-06-10T11:34:58.855Z,33.19
2019-06-10T11:44:59.941Z,33.19
2019-06-10T11:47:42.496Z,33.19
2019-06-10T11:50:16.786Z,33.31
2019-06-10T11:53:04.239Z,33.33
2019-06-10T11:55:49.540Z,33.38
2019-06-10T11:58:18.180Z,33.45
2019-06-10T12:01:08.988Z,33.50
2019-06-10T12:06:33.957Z,33.50
2019-06-10T12:09:09.538Z,33.50
2019-06-10T12:11:43.752Z,33.49
2019-06-10T12:14:16.598Z,33.59
2019-06-10T12:17:17.474Z,33.60
2019-06-10T12:19:23.861Z,33.62
2019-06-10T12:21:59.691Z,33.68
2019-06-10T12:24:32.855Z,33.71
2019-06-10T12:27:05.120Z,33.67
2019-06-10T12:29:38.740Z,33.70
2019-06-10T12:32:13.334Z,33.75
2019-06-10T12:34:46.289Z,33.74
2019-06-10T12:37:18.414Z,33.75
2019-06-10T12:39:52.959Z,33.69
2019-06-10T12:42:24.239Z,33.69
2019-06-10T12:44:57.685Z,33.68
2019-06-10T12:47:30.181Z,33.67
2019-06-10T12:50:04.154Z,33.77
2019-06-10T12:52:35.937Z,33.75
2019-06-10T12:55:08.840Z,33.85
2019-06-10T12:57:42.837Z,33.82
2019-06-10T13:00:22.658Z,33.81
2019-06-10T13:02:50.352Z,33.91
2019-06-10T13:05:22.869Z,33.91
2019-06-10T13:07:55.502Z,33.97
2019-06-10T13:10:39.486Z,34.03
2019-06-10T13:13:13.111Z,34.04
2019-06-10T13:15:45.180Z,33.94
2019-06-10T13:18:26.541Z,33.88
2019-06-10T13:21:17.816Z,33.95
2019-06-10T13:58:34.811Z,34.11
2019-06-10T14:01:21.467Z,34.19
2019-06-10T14:04:09.753Z,34.17
2019-06-10T14:09:25.191Z,34.17
2019-06-10T14:11:57.271Z,34.24
2019-06-10T14:14:35.330Z,34.25
2019-06-10T14:17:07.456Z,34.30
2019-06-10T14:19:43.263Z,34.34
2019-06-10T14:22:16.066Z,34.44
2019-06-10T14:24:53.049Z,34.40
2019-06-10T14:27:25.663Z,34.43
2019-06-10T14:29:57.697Z,34.32
2019-06-10T14:32:29.865Z,34.33
2019-06-10T14:35:01.948Z,34.10
2019-06-10T14:37:39.063Z,33.86
2019-06-10T14:40:08.888Z,33.98
2019-06-10T14:42:42.920Z,33.98
2019-06-10T14:45:17.658Z,34.05
2019-06-10T14:47:54.236Z,34.02
2019-06-10T14:50:26.546Z,33.81
2019-06-10T14:52:58.555Z,33.84
2019-06-10T14:55:34.047Z,33.77
2019-06-10T14:58:07.463Z,33.84
2019-06-10T15:00:45.415Z,33.87
2019-06-10T15:03:19.628Z,33.93
2019-06-10T15:05:49.621Z,33.96
2019-06-10T15:08:23.074Z,33.96
2019-06-10T15:10:55.505Z,33.88
2019-06-10T15:13:27.503Z,33.80
2019-06-10T15:15:59.615Z,33.88
2019-06-10T15:18:33.119Z,33.60
2019-06-10T15:21:05.228Z,33.41
2019-06-10T15:23:38.221Z,33.28
2019-06-10T15:26:13.121Z,33.07
2019-06-10T15:28:44.022Z,33.05
2019-06-10T15:31:17.653Z,33.05
2019-06-10T15:33:52.254Z,32.99
2019-06-10T15:36:25.285Z,32.84
2019-06-10T15:38:57.469Z,32.73
2019-06-10T15:41:29.459Z,32.69
2019-06-10T15:44:02.578Z,32.60
2019-06-10T15:46:34.752Z,32.54
2019-06-10T15:49:07.849Z,32.46
2019-06-10T15:51:39.839Z,32.42
2019-06-10T15:54:14.017Z,32.48
2019-06-10T15:56:52.168Z,32.41
2019-06-10T15:59:19.844Z,32.33
2019-06-10T16:01:53.067Z,32.29
2019-06-10T16:04:29.509Z,32.21
2019-06-10T16:06:59.168Z,32.17
2019-06-10T16:09:32.163Z,32.11
2019-06-10T16:12:04.602Z,32.06
2019-06-10T16:14:42.479Z,32.11
2019-06-10T16:17:24.277Z,32.08
2019-06-10T16:20:03.759Z,32.13
2019-06-10T16:22:37.959Z,32.14
2019-06-10T16:25:12.550Z,32.10
2019-06-10T16:27:54.456Z,32.12
2019-06-10T16:30:28.833Z,32.08
2019-06-10T16:33:05.417Z,32.03
2019-06-10T16:35:37.810Z,31.92
2019-06-10T16:38:12.583Z,31.86
2019-06-10T16:40:44.176Z,31.84
2019-06-10T16:43:17.687Z,31.62
2019-06-10T16:45:52.614Z,31.47
2019-06-10T16:48:25.553Z,31.34
2019-06-10T16:50:59.059Z,31.24
2019-06-10T16:53:35.212Z,31.20
2019-06-10T16:56:05.256Z,31.07
2019-06-10T16:58:37.618Z,30.94
2019-06-10T17:01:12.435Z,30.87
2019-06-10T17:03:55.341Z,30.71
2019-06-10T17:06:32.730Z,30.58
2019-06-10T17:09:13.836Z,30.57
2019-06-10T17:11:52.937Z,30.50
2019-06-10T17:14:28.086Z,30.45
2019-06-10T17:17:16.228Z,30.47
2019-06-10T17:19:51.989Z,30.47
2019-06-10T17:32:26.764Z,29.98
2019-06-10T17:35:02.332Z,29.79
2019-06-10T17:37:34.773Z,29.64
2019-06-10T17:40:10.021Z,29.52
2019-06-10T17:42:42.834Z,29.37
2019-06-10T17:45:15.239Z,29.27
2019-06-10T17:47:48.588Z,29.20
2019-06-10T17:50:22.309Z,29.07
2019-06-10T17:52:54.978Z,28.94
2019-06-10T17:55:28.152Z,28.90
2019-06-10T17:58:02.921Z,28.81
2019-06-10T18:00:36.304Z,28.72
2019-06-10T18:03:09.788Z,28.68
2019-06-10T18:05:42.678Z,28.62
2019-06-10T18:08:15.147Z,28.42
2019-06-10T18:10:49.089Z,28.42
2019-06-10T18:13:22.836Z,28.45
2019-06-10T18:15:55.551Z,28.38
2019-06-10T18:18:28.368Z,28.47
2019-06-10T18:21:03.173Z,28.48
2019-06-10T18:23:35.402Z,28.59
2019-06-10T18:26:07.868Z,28.58
2019-06-10T18:28:59.818Z,28.58
2019-06-10T18:31:23.235Z,28.51
2019-06-10T18:33:56.880Z,28.49
2019-06-10T18:36:33.103Z,28.48
2019-06-10T18:39:07.884Z,28.36
2019-06-10T18:41:47.936Z,28.39
2019-06-10T18:44:24.154Z,28.19
2019-06-10T18:46:54.876Z,28.05
2019-06-10T18:49:28.176Z,27.90
2019-06-10T18:52:00.542Z,27.65
2019-06-10T18:54:34.430Z,27.52
2019-06-10T18:57:06.829Z,27.35
2019-06-10T18:59:39.629Z,27.35
2019-06-10T19:02:23.327Z,27.28
2019-06-10T19:04:55.802Z,27.23
2019-06-10T19:07:33.487Z,27.02
2019-06-10T19:10:07.381Z,26.90
2019-06-10T19:12:42.355Z,26.72
2019-06-10T19:15:14.809Z,26.72
2019-06-10T19:17:47.402Z,26.58
2019-06-10T19:20:19.769Z,26.45
2019-06-10T19:22:52.724Z,26.32
2019-06-10T19:25:25.241Z,26.29
2019-06-10T19:28:00.808Z,26.21
2019-06-10T19:30:38.792Z,26.12
2019-06-10T19:33:24.498Z,26.00
2019-06-10T19:36:41.930Z,26.04
2019-06-10T19:39:43.510Z,26.01
2019-06-10T19:42:26.228Z,25.85
2019-06-10T19:45:38.416Z,25.74
2019-06-10T19:48:39.918Z,25.62
2019-06-10T20:05:47.820Z,25.12
2019-06-10T20:22:43.154Z,24.72
2019-06-10T20:29:00.484Z,24.51
2019-06-10T20:31:33.111Z,24.44
2019-06-10T20:34:05.560Z,24.43
2019-06-10T20:36:37.915Z,24.39
2019-06-10T20:39:10.332Z,24.35
2019-06-10T20:41:47.288Z,24.38
2019-06-10T20:44:17.646Z,24.32
2019-06-10T20:46:52.707Z,24.28
2019-06-10T20:49:25.889Z,24.22
2019-06-10T20:52:10.877Z,24.19
2019-06-10T20:54:36.016Z,24.14
2019-06-10T20:57:12.143Z,24.11
2019-06-10T20:59:46.534Z,24.09
2019-06-10T21:02:18.993Z,24.01
2019-06-10T21:04:53.174Z,23.96
2019-06-10T21:07:25.881Z,23.90
2019-06-10T21:10:02.799Z,23.87
2019-06-10T21:12:35.209Z,23.80
2019-06-10T21:15:12.584Z,23.74
2019-06-10T21:17:49.275Z,23.75
2019-06-10T21:20:23.465Z,23.78
2019-06-10T21:22:55.860Z,23.71
2019-06-10T21:25:32.426Z,23.65
2019-06-10T21:28:06.064Z,23.65
2019-06-10T21:30:45.905Z,23.64
2019-06-10T21:33:15.450Z,23.57
2019-06-10T21:35:54.815Z,23.51
2019-06-10T21:38:29.075Z,23.52
2019-06-10T21:41:03.347Z,23.47
2019-06-10T21:43:41.291Z,23.40
2019-06-10T21:46:13.147Z,23.37
2019-06-10T21:48:48.971Z,23.35
2019-06-10T21:51:24.187Z,23.31
2019-06-10T21:53:58.154Z,23.24
2019-06-10T21:56:39.153Z,23.16
2019-06-10T21:59:12.635Z,23.15
2019-06-10T22:01:51.250Z,23.09
2019-06-10T22:04:23.836Z,23.03
2019-06-10T22:06:58.891Z,22.98
2019-06-10T22:09:31.460Z,22.86
2019-06-10T22:12:04.049Z,22.79
2019-06-10T22:14:39.149Z,22.72
2019-06-10T22:17:14.427Z,22.71
2019-06-10T22:19:48.582Z,22.77
2019-06-10T22:22:21.158Z,22.74
2019-06-10T22:25:02.925Z,22.64
2019-06-10T22:27:37.448Z,22.57
2019-06-10T22:30:11.566Z,22.47
2019-06-10T22:32:45.260Z,22.42
2019-06-10T22:35:17.816Z,22.38
2019-06-10T22:37:56.410Z,22.37
2019-06-10T22:40:29.157Z,22.30
2019-06-10T22:43:03.695Z,22.25
2019-06-10T22:45:42.471Z,22.20
2019-06-10T22:48:15.655Z,22.22
2019-06-10T22:50:49.653Z,22.14
2019-06-10T22:53:26.726Z,22.04
2019-06-10T22:56:12.349Z,22.00
2019-06-10T22:58:47.629Z,21.98
2019-06-10T23:01:33.620Z,21.91
2019-06-10T23:03:57.391Z,21.95
2019-06-10T23:06:37.849Z,21.95
2019-06-10T23:09:18.205Z,21.89
2019-06-10T23:12:00.141Z,21.84
2019-06-10T23:14:36.464Z,21.81
2019-06-10T23:17:14.555Z,21.78
2019-06-10T23:19:53.939Z,21.70
2019-06-10T23:22:29.274Z,21.69
2019-06-10T23:25:06.709Z,21.66
2019-06-10T23:27:44.353Z,21.69
2019-06-10T23:30:22.886Z,21.66
2019-06-10T23:33:00.828Z,21.58
2019-06-10T23:35:33.865Z,21.48
2019-06-10T23:38:13.161Z,21.44
2019-06-10T23:40:46.898Z,21.43
2019-06-10T23:43:22.643Z,21.38
2019-06-10T23:46:22.851Z,21.37
2019-06-10T23:48:59.584Z,21.36
2019-06-10T23:51:38.450Z,21.32
2019-06-10T23:54:19.101Z,21.31
2019-06-10T23:56:56.624Z,21.25
2019-06-10T23:59:38.123Z,21.25
